sensor_id;sensor_type;location;lat;lon;timestamp;pressure;altitude;pressure_sealevel;temperature;humidity
70053;BME280;57398;52.032;4.376;2023-11-19T00:02:41;98778.47;;;12.47;100.00
70053;BME280;57398;52.032;4.376;2023-11-19T00:05:30;98780.84;;;12.43;100.00
70053;BME280;57398;52.032;4.376;2023-11-19T00:08:18;98794.78;;;12.52;100.00
70053;BME280;57398;52.032;4.376;2023-11-19T00:11:07;98797.13;;;12.54;100.00
70053;BME280;57398;52.032;4.376;2023-11-19T00:13:55;98804.16;;;12.53;100.00
70053;BME280;57398;52.032;4.376;2023-11-19T00:16:43;98804.16;;;12.53;100.00
70053;BME280;57398;52.032;4.376;2023-11-19T00:19:31;98816.69;;;12.51;100.00
70053;BME280;57398;52.032;4.376;2023-11-19T00:22:19;98819.63;;;12.45;100.00
70053;BME280;57398;52.032;4.376;2023-11-19T00:25:08;98836.31;;;12.44;100.00
70053;BME280;57398;52.032;4.376;2023-11-19T00:27:58;98848.84;;;12.42;100.00
70053;BME280;57398;52.032;4.376;2023-11-19T00:30:46;98862.47;;;12.33;100.00
70053;BME280;57398;52.032;4.376;2023-11-19T00:33:35;98878.31;;;12.37;100.00
70053;BME280;57398;52.032;4.376;2023-11-19T00:36:34;98879.94;;;12.33;100.00
70053;BME280;57398;52.032;4.376;2023-11-19T00:39:22;98892.63;;;12.40;100.00
70053;BME280;57398;52.032;4.376;2023-11-19T00:42:10;98900.19;;;12.36;100.00
70053;BME280;57398;52.032;4.376;2023-11-19T00:45:00;98902.84;;;12.31;100.00
70053;BME280;57398;52.032;4.376;2023-11-19T00:47:48;98923.41;;;12.32;100.00
70053;BME280;57398;52.032;4.376;2023-11-19T00:50:36;98909.72;;;12.46;100.00
70053;BME280;57398;52.032;4.376;2023-11-19T00:53:26;98938.75;;;12.34;100.00
70053;BME280;57398;52.032;4.376;2023-11-19T00:56:14;99324.13;;;12.24;100.00
70053;BME280;57398;52.032;4.376;2023-11-19T00:59:04;99408.22;;;12.24;100.00
70053;BME280;57398;52.032;4.376;2023-11-19T01:01:53;99438.94;;;12.22;100.00
70053;BME280;57398;52.032;4.376;2023-11-19T01:04:43;99460.81;;;12.16;100.00
70053;BME280;57398;52.032;4.376;2023-11-19T01:07:32;99482.69;;;12.20;100.00
70053;BME280;57398;52.032;4.376;2023-11-19T01:10:20;99483.72;;;12.09;100.00
70053;BME280;57398;52.032;4.376;2023-11-19T01:13:08;99516.78;;;12.08;100.00
70053;BME280;57398;52.032;4.376;2023-11-19T01:15:57;99536.03;;;12.02;100.00
70053;BME280;57398;52.032;4.376;2023-11-19T01:18:46;99551.91;;;11.95;100.00
70053;BME280;57398;52.032;4.376;2023-11-19T01:21:34;99554.50;;;11.90;100.00
70053;BME280;57398;52.032;4.376;2023-11-19T01:24:22;99579.44;;;11.81;100.00
70053;BME280;57398;52.032;4.376;2023-11-19T01:27:11;99574.22;;;11.81;100.00
70053;BME280;57398;52.032;4.376;2023-11-19T01:29:59;99584.91;;;11.80;100.00
70053;BME280;57398;52.032;4.376;2023-11-19T01:32:48;99600.53;;;11.80;100.00
70053;BME280;57398;52.032;4.376;2023-11-19T01:35:38;99614.03;;;11.82;100.00
70053;BME280;57398;52.032;4.376;2023-11-19T01:38:26;99626.00;;;11.78;100.00
70053;BME280;57398;52.032;4.376;2023-11-19T01:41:14;99650.97;;;11.79;100.00
70053;BME280;57398;52.032;4.376;2023-11-19T01:44:03;99668.66;;;11.77;100.00
70053;BME280;57398;52.032;4.376;2023-11-19T01:46:51;99669.41;;;11.72;100.00
70053;BME280;57398;52.032;4.376;2023-11-19T01:49:39;99678.75;;;11.68;100.00
70053;BME280;57398;52.032;4.376;2023-11-19T01:52:29;99692.56;;;11.68;100.00
70053;BME280;57398;52.032;4.376;2023-11-19T01:55:17;99710.19;;;11.61;100.00
70053;BME280;57398;52.032;4.376;2023-11-19T01:58:05;99708.63;;;11.55;100.00
70053;BME280;57398;52.032;4.376;2023-11-19T02:00:54;99733.50;;;11.41;100.00
70053;BME280;57398;52.032;4.376;2023-11-19T02:03:43;99748.84;;;11.42;100.00
70053;BME280;57398;52.032;4.376;2023-11-19T02:06:32;99758.03;;;11.50;100.00
70053;BME280;57398;52.032;4.376;2023-11-19T02:09:22;99758.50;;;11.47;100.00
70053;BME280;57398;52.032;4.376;2023-11-19T02:12:10;99772.53;;;11.41;100.00
70053;BME280;57398;52.032;4.376;2023-11-19T02:14:59;99762.91;;;11.41;100.00
70053;BME280;57398;52.032;4.376;2023-11-19T02:17:49;99765.31;;;11.53;100.00
70053;BME280;57398;52.032;4.376;2023-11-19T02:20:37;99776.69;;;11.47;100.00
70053;BME280;57398;52.032;4.376;2023-11-19T02:23:26;99783.22;;;11.49;100.00
70053;BME280;57398;52.032;4.376;2023-11-19T02:26:18;99782.84;;;11.36;100.00
70053;BME280;57398;52.032;4.376;2023-11-19T02:29:14;99792.22;;;11.31;100.00
70053;BME280;57398;52.032;4.376;2023-11-19T02:32:02;99794.00;;;11.31;100.00
70053;BME280;57398;52.032;4.376;2023-11-19T02:34:50;99795.28;;;11.28;100.00
70053;BME280;57398;52.032;4.376;2023-11-19T02:37:39;99800.50;;;11.28;100.00
70053;BME280;57398;52.032;4.376;2023-11-19T02:40:28;99801.72;;;11.21;100.00
70053;BME280;57398;52.032;4.376;2023-11-19T02:43:16;99803.06;;;11.23;100.00
70053;BME280;57398;52.032;4.376;2023-11-19T02:46:06;99799.13;;;11.21;100.00
70053;BME280;57398;52.032;4.376;2023-11-19T02:48:58;99804.81;;;11.18;100.00
70053;BME280;57398;52.032;4.376;2023-11-19T02:51:46;99812.38;;;11.19;100.00
70053;BME280;57398;52.032;4.376;2023-11-19T02:54:34;99816.75;;;11.14;100.00
70053;BME280;57398;52.032;4.376;2023-11-19T02:57:23;99818.97;;;11.00;100.00
70053;BME280;57398;52.032;4.376;2023-11-19T03:00:12;99806.75;;;11.00;100.00
70053;BME280;57398;52.032;4.376;2023-11-19T03:03:02;99804.38;;;10.99;100.00
70053;BME280;57398;52.032;4.376;2023-11-19T03:06:05;99803.41;;;11.05;100.00
70053;BME280;57398;52.032;4.376;2023-11-19T03:08:54;99802.22;;;11.18;100.00
70053;BME280;57398;52.032;4.376;2023-11-19T03:11:42;99814.09;;;11.08;100.00
70053;BME280;57398;52.032;4.376;2023-11-19T03:14:30;99809.72;;;11.14;100.00
70053;BME280;57398;52.032;4.376;2023-11-19T03:17:21;99808.13;;;11.08;100.00
70053;BME280;57398;52.032;4.376;2023-11-19T03:20:12;99807.84;;;11.04;100.00
70053;BME280;57398;52.032;4.376;2023-11-19T03:23:02;99822.53;;;11.21;100.00
70053;BME280;57398;52.032;4.376;2023-11-19T03:25:50;99834.59;;;11.05;100.00
70053;BME280;57398;52.032;4.376;2023-11-19T03:28:38;99836.34;;;10.99;100.00
70053;BME280;57398;52.032;4.376;2023-11-19T03:31:26;99843.69;;;11.02;100.00
70053;BME280;57398;52.032;4.376;2023-11-19T03:34:14;99846.28;;;11.02;100.00
70053;BME280;57398;52.032;4.376;2023-11-19T03:37:03;99848.84;;;10.97;100.00
70053;BME280;57398;52.032;4.376;2023-11-19T03:39:53;99859.47;;;10.96;100.00
70053;BME280;57398;52.032;4.376;2023-11-19T03:42:41;99873.66;;;10.88;100.00
70053;BME280;57398;52.032;4.376;2023-11-19T03:45:30;99869.53;;;10.92;100.00
70053;BME280;57398;52.032;4.376;2023-11-19T03:48:18;99863.63;;;10.97;100.00
70053;BME280;57398;52.032;4.376;2023-11-19T03:51:06;99873.47;;;10.95;100.00
70053;BME280;57398;52.032;4.376;2023-11-19T03:53:56;99882.97;;;10.84;100.00
70053;BME280;57398;52.032;4.376;2023-11-19T03:56:44;99882.78;;;10.90;100.00
70053;BME280;57398;52.032;4.376;2023-11-19T03:59:32;99880.31;;;10.79;100.00
70053;BME280;57398;52.032;4.376;2023-11-19T04:02:20;99866.41;;;10.90;100.00
70053;BME280;57398;52.032;4.376;2023-11-19T04:05:08;99885.88;;;10.87;100.00
70053;BME280;57398;52.032;4.376;2023-11-19T04:07:57;99890.19;;;10.77;100.00
70053;BME280;57398;52.032;4.376;2023-11-19T04:10:47;99887.31;;;10.78;100.00
70053;BME280;57398;52.032;4.376;2023-11-19T04:13:35;99877.88;;;10.94;100.00
70053;BME280;57398;52.032;4.376;2023-11-19T04:16:26;99889.00;;;10.89;100.00
70053;BME280;57398;52.032;4.376;2023-11-19T04:19:14;99891.47;;;11.01;100.00
70053;BME280;57398;52.032;4.376;2023-11-19T04:22:03;99923.88;;;11.16;100.00
70053;BME280;57398;52.032;4.376;2023-11-19T04:24:51;99956.03;;;11.09;100.00
70053;BME280;57398;52.032;4.376;2023-11-19T04:27:40;99991.84;;;11.07;100.00
70053;BME280;57398;52.032;4.376;2023-11-19T04:30:28;100016.69;;;10.98;100.00
70053;BME280;57398;52.032;4.376;2023-11-19T04:33:18;100030.22;;;11.00;100.00
70053;BME280;57398;52.032;4.376;2023-11-19T04:36:07;100055.19;;;11.01;100.00
70053;BME280;57398;52.032;4.376;2023-11-19T04:38:55;100061.09;;;10.97;100.00
70053;BME280;57398;52.032;4.376;2023-11-19T04:41:46;100083.09;;;10.89;100.00
70053;BME280;57398;52.032;4.376;2023-11-19T04:44:36;100096.94;;;10.95;100.00
70053;BME280;57398;52.032;4.376;2023-11-19T04:47:24;100103.16;;;10.94;100.00
70053;BME280;57398;52.032;4.376;2023-11-19T04:50:13;100128.53;;;10.86;100.00
70053;BME280;57398;52.032;4.376;2023-11-19T04:53:02;100133.88;;;10.97;100.00
70053;BME280;57398;52.032;4.376;2023-11-19T04:55:50;100135.00;;;10.84;100.00
70053;BME280;57398;52.032;4.376;2023-11-19T04:58:38;100151.03;;;10.81;100.00
70053;BME280;57398;52.032;4.376;2023-11-19T05:01:27;100158.97;;;10.74;100.00
70053;BME280;57398;52.032;4.376;2023-11-19T05:04:15;100160.00;;;10.73;100.00
70053;BME280;57398;52.032;4.376;2023-11-19T05:07:05;100159.53;;;10.76;100.00
70053;BME280;57398;52.032;4.376;2023-11-19T05:09:54;100173.47;;;10.87;100.00
70053;BME280;57398;52.032;4.376;2023-11-19T05:12:42;100185.34;;;10.83;100.00
70053;BME280;57398;52.032;4.376;2023-11-19T05:15:30;100187.03;;;10.89;100.00
70053;BME280;57398;52.032;4.376;2023-11-19T05:18:20;100188.66;;;10.78;100.00
70053;BME280;57398;52.032;4.376;2023-11-19T05:21:08;100173.63;;;10.80;100.00
70053;BME280;57398;52.032;4.376;2023-11-19T05:23:56;100172.28;;;10.78;100.00
70053;BME280;57398;52.032;4.376;2023-11-19T05:26:44;100153.81;;;10.91;100.00
70053;BME280;57398;52.032;4.376;2023-11-19T05:29:33;100156.94;;;10.93;100.00
70053;BME280;57398;52.032;4.376;2023-11-19T05:32:21;100164.91;;;10.86;100.00
70053;BME280;57398;52.032;4.376;2023-11-19T05:35:11;100159.22;;;10.89;100.00
70053;BME280;57398;52.032;4.376;2023-11-19T05:37:59;100178.91;;;10.85;100.00
70053;BME280;57398;52.032;4.376;2023-11-19T05:40:49;100175.53;;;10.85;100.00
70053;BME280;57398;52.032;4.376;2023-11-19T05:43:37;100173.84;;;10.79;100.00
70053;BME280;57398;52.032;4.376;2023-11-19T05:46:27;100182.06;;;10.87;100.00
70053;BME280;57398;52.032;4.376;2023-11-19T05:49:15;100184.25;;;10.79;100.00
70053;BME280;57398;52.032;4.376;2023-11-19T05:52:05;100174.47;;;10.69;100.00
70053;BME280;57398;52.032;4.376;2023-11-19T05:54:54;100202.84;;;10.71;100.00
70053;BME280;57398;52.032;4.376;2023-11-19T05:57:43;100196.75;;;10.65;100.00
70053;BME280;57398;52.032;4.376;2023-11-19T06:00:33;100187.41;;;10.81;100.00
70053;BME280;57398;52.032;4.376;2023-11-19T06:03:22;100186.06;;;10.78;100.00
70053;BME280;57398;52.032;4.376;2023-11-19T06:06:11;100199.53;;;10.75;100.00
70053;BME280;57398;52.032;4.376;2023-11-19T06:09:00;100195.56;;;10.56;100.00
70053;BME280;57398;52.032;4.376;2023-11-19T06:11:54;100174.47;;;10.69;100.00
70053;BME280;57398;52.032;4.376;2023-11-19T06:14:44;100170.25;;;10.63;100.00
70053;BME280;57398;52.032;4.376;2023-11-19T06:17:32;100152.28;;;10.78;100.00
70053;BME280;57398;52.032;4.376;2023-11-19T06:20:20;100166.53;;;10.76;100.00
70053;BME280;57398;52.032;4.376;2023-11-19T06:23:08;100170.63;;;10.72;100.00
70053;BME280;57398;52.032;4.376;2023-11-19T06:25:58;100166.69;;;10.69;100.00
70053;BME280;57398;52.032;4.376;2023-11-19T06:28:45;100184.09;;;10.68;100.00
70053;BME280;57398;52.032;4.376;2023-11-19T06:31:33;100177.88;;;10.69;100.00
70053;BME280;57398;52.032;4.376;2023-11-19T06:34:21;100173.72;;;10.68;100.00
70053;BME280;57398;52.032;4.376;2023-11-19T06:37:10;100163.94;;;10.76;100.00
70053;BME280;57398;52.032;4.376;2023-11-19T06:39:58;100164.50;;;10.78;100.00
70053;BME280;57398;52.032;4.376;2023-11-19T06:42:47;100170.31;;;10.68;100.00
70053;BME280;57398;52.032;4.376;2023-11-19T06:45:35;100167.66;;;10.80;100.00
70053;BME280;57398;52.032;4.376;2023-11-19T06:48:24;100170.88;;;10.87;100.00
70053;BME280;57398;52.032;4.376;2023-11-19T06:51:12;100178.19;;;10.90;100.00
70053;BME280;57398;52.032;4.376;2023-11-19T06:54:00;100175.75;;;11.17;100.00
70053;BME280;57398;52.032;4.376;2023-11-19T06:56:48;100192.47;;;11.04;100.00
70053;BME280;57398;52.032;4.376;2023-11-19T06:59:38;100198.44;;;11.05;100.00
70053;BME280;57398;52.032;4.376;2023-11-19T07:02:26;100196.63;;;11.05;100.00
70053;BME280;57398;52.032;4.376;2023-11-19T07:05:14;100199.69;;;11.19;100.00
70053;BME280;57398;52.032;4.376;2023-11-19T07:08:03;100196.94;;;11.26;100.00
70053;BME280;57398;52.032;4.376;2023-11-19T07:10:51;100211.97;;;11.24;100.00
70053;BME280;57398;52.032;4.376;2023-11-19T07:13:39;100209.25;;;11.14;100.00
70053;BME280;57398;52.032;4.376;2023-11-19T07:16:29;100219.22;;;11.22;100.00
70053;BME280;57398;52.032;4.376;2023-11-19T07:19:17;100202.69;;;11.28;100.00
70053;BME280;57398;52.032;4.376;2023-11-19T07:22:05;100204.97;;;11.07;100.00
70053;BME280;57398;52.032;4.376;2023-11-19T07:24:54;100189.88;;;11.04;100.00
70053;BME280;57398;52.032;4.376;2023-11-19T07:27:42;100194.91;;;11.11;100.00
70053;BME280;57398;52.032;4.376;2023-11-19T07:30:30;100186.16;;;11.00;100.00
70053;BME280;57398;52.032;4.376;2023-11-19T07:33:19;100196.63;;;11.05;100.00
70053;BME280;57398;52.032;4.376;2023-11-19T07:36:08;100199.06;;;11.12;100.00
70053;BME280;57398;52.032;4.376;2023-11-19T07:38:56;100206.16;;;11.00;100.00
70053;BME280;57398;52.032;4.376;2023-11-19T07:41:44;100214.13;;;11.10;100.00
70053;BME280;57398;52.032;4.376;2023-11-19T07:44:32;100217.81;;;11.14;100.00
70053;BME280;57398;52.032;4.376;2023-11-19T07:47:20;100229.47;;;11.11;100.00
70053;BME280;57398;52.032;4.376;2023-11-19T07:50:11;100259.91;;;11.11;100.00
70053;BME280;57398;52.032;4.376;2023-11-19T07:53:00;100261.13;;;11.08;100.00
70053;BME280;57398;52.032;4.376;2023-11-19T07:55:51;100250.13;;;11.18;100.00
70053;BME280;57398;52.032;4.376;2023-11-19T07:58:39;100278.78;;;11.23;100.00
70053;BME280;57398;52.032;4.376;2023-11-19T08:01:27;100298.81;;;11.23;100.00
70053;BME280;57398;52.032;4.376;2023-11-19T08:04:15;100321.72;;;11.26;100.00
70053;BME280;57398;52.032;4.376;2023-11-19T08:07:04;100347.03;;;11.30;100.00
70053;BME280;57398;52.032;4.376;2023-11-19T08:09:53;100363.97;;;11.33;100.00
70053;BME280;57398;52.032;4.376;2023-11-19T08:12:41;100341.81;;;11.47;100.00
70053;BME280;57398;52.032;4.376;2023-11-19T08:15:29;100343.91;;;11.45;100.00
70053;BME280;57398;52.032;4.376;2023-11-19T08:18:18;100333.56;;;11.50;100.00
70053;BME280;57398;52.032;4.376;2023-11-19T08:21:06;100346.72;;;11.61;100.00
70053;BME280;57398;52.032;4.376;2023-11-19T08:23:56;100353.03;;;11.82;100.00
70053;BME280;57398;52.032;4.376;2023-11-19T08:26:44;100369.31;;;11.89;100.00
70053;BME280;57398;52.032;4.376;2023-11-19T08:29:47;100370.88;;;11.90;100.00
70053;BME280;57398;52.032;4.376;2023-11-19T08:32:36;100376.88;;;11.90;100.00
70053;BME280;57398;52.032;4.376;2023-11-19T08:35:24;100391.84;;;12.00;100.00
70053;BME280;57398;52.032;4.376;2023-11-19T08:38:12;100391.38;;;12.03;100.00
70053;BME280;57398;52.032;4.376;2023-11-19T08:41:01;100433.66;;;12.10;100.00
70053;BME280;57398;52.032;4.376;2023-11-19T08:43:50;100417.25;;;12.10;100.00
70053;BME280;57398;52.032;4.376;2023-11-19T08:46:38;100435.31;;;12.17;100.00
70053;BME280;57398;52.032;4.376;2023-11-19T08:49:26;100441.31;;;12.17;100.00
70053;BME280;57398;52.032;4.376;2023-11-19T08:52:14;100441.84;;;12.19;100.00
70053;BME280;57398;52.032;4.376;2023-11-19T08:55:04;100452.28;;;12.19;100.00
70053;BME280;57398;52.032;4.376;2023-11-19T08:57:54;100441.78;;;12.14;100.00
70053;BME280;57398;52.032;4.376;2023-11-19T09:00:42;100441.31;;;12.17;100.00
70053;BME280;57398;52.032;4.376;2023-11-19T09:03:31;100436.31;;;12.15;100.00
70053;BME280;57398;52.032;4.376;2023-11-19T09:06:20;100450.50;;;12.25;100.00
70053;BME280;57398;52.032;4.376;2023-11-19T09:09:08;100450.06;;;12.11;100.00
70053;BME280;57398;52.032;4.376;2023-11-19T09:11:56;100467.50;;;12.10;100.00
70053;BME280;57398;52.032;4.376;2023-11-19T09:14:46;100454.09;;;12.19;100.00
70053;BME280;57398;52.032;4.376;2023-11-19T09:17:34;100462.38;;;12.32;100.00
70053;BME280;57398;52.032;4.376;2023-11-19T09:20:22;100461.66;;;12.37;100.00
70053;BME280;57398;52.032;4.376;2023-11-19T09:23:10;100483.28;;;12.38;100.00
70053;BME280;57398;52.032;4.376;2023-11-19T09:25:59;100502.13;;;12.45;100.00
70053;BME280;57398;52.032;4.376;2023-11-19T09:28:47;100521.47;;;12.49;100.00
70053;BME280;57398;52.032;4.376;2023-11-19T09:31:37;100514.09;;;12.63;100.00
70053;BME280;57398;52.032;4.376;2023-11-19T09:34:25;100516.44;;;12.81;100.00
70053;BME280;57398;52.032;4.376;2023-11-19T09:37:14;100525.81;;;12.99;100.00
70053;BME280;57398;52.032;4.376;2023-11-19T09:40:06;100538.91;;;13.04;100.00
70053;BME280;57398;52.032;4.376;2023-11-19T09:42:56;100573.44;;;12.94;100.00
70053;BME280;57398;52.032;4.376;2023-11-19T09:45:48;100584.38;;;12.74;100.00
70053;BME280;57398;52.032;4.376;2023-11-19T09:48:39;100584.75;;;12.66;100.00
70053;BME280;57398;52.032;4.376;2023-11-19T09:51:27;100607.84;;;12.57;100.00
70053;BME280;57398;52.032;4.376;2023-11-19T09:54:16;100608.31;;;12.71;100.00
70053;BME280;57398;52.032;4.376;2023-11-19T09:57:04;100628.59;;;12.69;100.00
70053;BME280;57398;52.032;4.376;2023-11-19T09:59:54;100637.78;;;12.72;100.00
70053;BME280;57398;52.032;4.376;2023-11-19T10:02:43;100655.94;;;12.67;100.00
70053;BME280;57398;52.032;4.376;2023-11-19T10:05:35;100667.84;;;12.63;100.00
70053;BME280;57398;52.032;4.376;2023-11-19T10:08:25;100688.00;;;12.67;100.00
70053;BME280;57398;52.032;4.376;2023-11-19T10:11:13;100666.81;;;12.64;100.00
70053;BME280;57398;52.032;4.376;2023-11-19T10:14:02;100662.50;;;12.69;100.00
70053;BME280;57398;52.032;4.376;2023-11-19T10:16:50;100657.97;;;12.65;100.00
70053;BME280;57398;52.032;4.376;2023-11-19T10:19:40;100644.69;;;12.66;100.00
70053;BME280;57398;52.032;4.376;2023-11-19T10:22:30;100643.34;;;12.64;100.00
70053;BME280;57398;52.032;4.376;2023-11-19T10:25:22;100644.47;;;12.68;100.00
70053;BME280;57398;52.032;4.376;2023-11-19T10:28:11;100630.34;;;12.64;100.00
70053;BME280;57398;52.032;4.376;2023-11-19T10:30:59;100629.94;;;12.72;100.00
70053;BME280;57398;52.032;4.376;2023-11-19T10:33:47;100633.13;;;12.74;100.00
70053;BME280;57398;52.032;4.376;2023-11-19T10:36:38;100645.09;;;12.75;100.00
70053;BME280;57398;52.032;4.376;2023-11-19T10:39:51;100643.28;;;12.75;100.00
70053;BME280;57398;52.032;4.376;2023-11-19T10:42:41;100647.78;;;12.80;100.00
70053;BME280;57398;52.032;4.376;2023-11-19T10:45:31;100651.97;;;12.81;100.00
70053;BME280;57398;52.032;4.376;2023-11-19T10:48:20;100668.41;;;12.82;100.00
70053;BME280;57398;52.032;4.376;2023-11-19T10:51:12;100666.66;;;12.87;100.00
70053;BME280;57398;52.032;4.376;2023-11-19T10:54:04;100678.81;;;12.98;100.00
70053;BME280;57398;52.032;4.376;2023-11-19T10:56:59;100679.00;;;13.09;100.00
70053;BME280;57398;52.032;4.376;2023-11-19T10:59:49;100688.97;;;13.29;100.00
70053;BME280;57398;52.032;4.376;2023-11-19T11:02:42;100704.91;;;13.32;100.00
70053;BME280;57398;52.032;4.376;2023-11-19T11:05:33;100715.25;;;13.27;100.00
70053;BME280;57398;52.032;4.376;2023-11-19T11:08:21;100688.78;;;13.18;100.00
70053;BME280;57398;52.032;4.376;2023-11-19T11:11:11;100655.06;;;13.29;100.00
70053;BME280;57398;52.032;4.376;2023-11-19T11:14:03;100635.53;;;13.31;100.00
70053;BME280;57398;52.032;4.376;2023-11-19T11:16:53;100622.03;;;13.39;100.00
70053;BME280;57398;52.032;4.376;2023-11-19T11:19:42;100618.16;;;13.42;100.00
70053;BME280;57398;52.032;4.376;2023-11-19T11:22:36;100597.66;;;13.51;100.00
70053;BME280;57398;52.032;4.376;2023-11-19T11:25:38;100584.97;;;13.59;100.00
70053;BME280;57398;52.032;4.376;2023-11-19T11:28:37;100608.28;;;13.66;100.00
70053;BME280;57398;52.032;4.376;2023-11-19T11:31:37;100628.19;;;13.72;100.00
70053;BME280;57398;52.032;4.376;2023-11-19T11:34:49;100628.75;;;13.74;100.00
70053;BME280;57398;52.032;4.376;2023-11-19T11:37:45;100592.13;;;13.69;100.00
70053;BME280;57398;52.032;4.376;2023-11-19T11:40:35;100595.41;;;13.59;100.00
70053;BME280;57398;52.032;4.376;2023-11-19T11:43:43;100593.72;;;13.48;100.00
70053;BME280;57398;52.032;4.376;2023-11-19T11:46:55;100591.66;;;13.50;100.00
70053;BME280;57398;52.032;4.376;2023-11-19T11:49:43;100593.75;;;13.53;100.00
70053;BME280;57398;52.032;4.376;2023-11-19T11:52:31;100610.03;;;13.38;100.00
70053;BME280;57398;52.032;4.376;2023-11-19T11:55:23;100614.66;;;13.31;100.00
70053;BME280;57398;52.032;4.376;2023-11-19T11:58:11;100625.88;;;13.32;100.00
70053;BME280;57398;52.032;4.376;2023-11-19T12:01:02;100632.31;;;13.46;100.00
70053;BME280;57398;52.032;4.376;2023-11-19T12:03:55;100648.78;;;13.30;100.00
70053;BME280;57398;52.032;4.376;2023-11-19T12:07:03;100669.19;;;13.16;100.00
70053;BME280;57398;52.032;4.376;2023-11-19T12:09:53;100668.56;;;13.09;100.00
70053;BME280;57398;52.032;4.376;2023-11-19T12:12:42;100651.88;;;13.10;100.00
70053;BME280;57398;52.032;4.376;2023-11-19T12:15:30;100647.47;;;13.10;100.00
70053;BME280;57398;52.032;4.376;2023-11-19T12:18:19;100633.16;;;13.13;100.00
70053;BME280;57398;52.032;4.376;2023-11-19T12:21:08;100623.81;;;13.17;100.00
70053;BME280;57398;52.032;4.376;2023-11-19T12:23:59;100620.78;;;13.25;100.00
70053;BME280;57398;52.032;4.376;2023-11-19T12:26:54;100617.94;;;13.27;100.00
70053;BME280;57398;52.032;4.376;2023-11-19T12:29:43;100620.19;;;13.18;100.00
70053;BME280;57398;52.032;4.376;2023-11-19T12:32:39;100618.78;;;13.10;100.00
70053;BME280;57398;52.032;4.376;2023-11-19T12:35:27;100597.38;;;13.08;100.00
70053;BME280;57398;52.032;4.376;2023-11-19T12:38:20;100597.09;;;13.10;100.00
70053;BME280;57398;52.032;4.376;2023-11-19T12:41:09;100576.91;;;13.00;100.00
70053;BME280;57398;52.032;4.376;2023-11-19T12:44:09;100574.13;;;13.07;100.00
70053;BME280;57398;52.032;4.376;2023-11-19T12:47:02;100569.03;;;13.17;100.00
70053;BME280;57398;52.032;4.376;2023-11-19T12:49:57;100566.41;;;13.17;100.00
70053;BME280;57398;52.032;4.376;2023-11-19T12:52:55;100562.53;;;12.97;100.00
70053;BME280;57398;52.032;4.376;2023-11-19T12:55:45;100577.25;;;12.87;100.00
70053;BME280;57398;52.032;4.376;2023-11-19T12:58:35;100559.09;;;12.92;100.00
70053;BME280;57398;52.032;4.376;2023-11-19T13:01:23;100566.34;;;12.90;100.00
70053;BME280;57398;52.032;4.376;2023-11-19T13:04:18;100556.66;;;12.85;100.00
70053;BME280;57398;52.032;4.376;2023-11-19T13:07:06;100567.59;;;12.87;100.00
70053;BME280;57398;52.032;4.376;2023-11-19T13:10:01;100561.31;;;12.83;100.00
70053;BME280;57398;52.032;4.376;2023-11-19T13:13:01;100565.63;;;12.77;100.00
70053;BME280;57398;52.032;4.376;2023-11-19T13:15:50;100546.66;;;12.60;100.00
70053;BME280;57398;52.032;4.376;2023-11-19T13:18:38;100515.28;;;12.55;100.00
70053;BME280;57398;52.032;4.376;2023-11-19T13:21:29;100495.25;;;12.55;100.00
70053;BME280;57398;52.032;4.376;2023-11-19T13:24:17;100456.47;;;12.59;100.00
70053;BME280;57398;52.032;4.376;2023-11-19T13:27:05;100411.94;;;12.61;100.00
70053;BME280;57398;52.032;4.376;2023-11-19T13:29:55;100367.81;;;12.54;100.00
70053;BME280;57398;52.032;4.376;2023-11-19T13:32:43;100354.97;;;12.47;100.00
70053;BME280;57398;52.032;4.376;2023-11-19T13:35:31;100332.25;;;12.43;100.00
70053;BME280;57398;52.032;4.376;2023-11-19T13:38:19;100346.25;;;12.36;100.00
70053;BME280;57398;52.032;4.376;2023-11-19T13:41:07;100334.19;;;12.30;100.00
70053;BME280;57398;52.032;4.376;2023-11-19T13:43:56;100354.72;;;12.27;100.00
70053;BME280;57398;52.032;4.376;2023-11-19T13:46:46;100373.38;;;12.19;100.00
70053;BME280;57398;52.032;4.376;2023-11-19T13:49:37;100381.41;;;12.17;100.00
70053;BME280;57398;52.032;4.376;2023-11-19T13:52:25;100390.78;;;12.18;100.00
70053;BME280;57398;52.032;4.376;2023-11-19T13:55:13;100387.19;;;12.19;100.00
70053;BME280;57398;52.032;4.376;2023-11-19T13:58:02;100401.31;;;12.23;100.00
70053;BME280;57398;52.032;4.376;2023-11-19T14:00:50;100420.25;;;12.19;100.00
70053;BME280;57398;52.032;4.376;2023-11-19T14:03:39;100411.22;;;12.26;100.00
70053;BME280;57398;52.032;4.376;2023-11-19T14:06:28;100409.16;;;12.28;100.00
70053;BME280;57398;52.032;4.376;2023-11-19T14:09:16;100412.78;;;12.27;100.00
70053;BME280;57398;52.032;4.376;2023-11-19T14:12:05;100415.16;;;12.29;100.00
70053;BME280;57398;52.032;4.376;2023-11-19T14:14:53;100420.69;;;12.32;100.00
70053;BME280;57398;52.032;4.376;2023-11-19T14:17:41;100423.59;;;12.36;100.00
70053;BME280;57398;52.032;4.376;2023-11-19T14:20:30;100428.31;;;12.39;100.00
70053;BME280;57398;52.032;4.376;2023-11-19T14:23:19;100425.00;;;12.44;100.00
70053;BME280;57398;52.032;4.376;2023-11-19T14:26:08;100433.13;;;12.47;100.00
70053;BME280;57398;52.032;4.376;2023-11-19T14:28:56;100438.88;;;12.49;100.00
70053;BME280;57398;52.032;4.376;2023-11-19T14:31:44;100440.78;;;12.54;100.00
70053;BME280;57398;52.032;4.376;2023-11-19T14:34:32;100436.88;;;12.56;100.00
70053;BME280;57398;52.032;4.376;2023-11-19T14:37:21;100432.22;;;12.58;100.00
70053;BME280;57398;52.032;4.376;2023-11-19T14:40:10;100509.91;;;12.62;100.00